createdAt,value
2017-08-14T00:00:16.991Z,18.58
2017-08-14T00:01:16.104Z,18.52
2017-08-14T00:02:16.107Z,18.52
2017-08-14T00:03:16.104Z,18.47
2017-08-14T00:04:16.116Z,18.58
2017-08-14T00:05:15.987Z,18.43
2017-08-14T00:06:16.111Z,18.41
2017-08-14T00:07:16.118Z,18.4
2017-08-14T00:08:16.129Z,18.47
2017-08-14T00:09:16.129Z,18.41
2017-08-14T00:10:16.316Z,18.38
2017-08-14T00:11:16.130Z,18.4
2017-08-14T00:12:16.132Z,18.45
2017-08-14T00:13:16.134Z,18.44
2017-08-14T00:14:16.152Z,18.37
2017-08-14T00:15:16.418Z,18.35
2017-08-14T00:16:16.415Z,18.29
2017-08-14T00:17:15.831Z,18.29
2017-08-14T00:18:16.157Z,18.26
2017-08-14T00:19:16.142Z,18.31
2017-08-14T00:20:16.008Z,18.28
2017-08-14T00:21:16.161Z,18.35
2017-08-14T00:22:16.506Z,18.29
2017-08-14T00:23:16.145Z,18.31
2017-08-14T00:24:16.173Z,18.33
2017-08-14T00:25:16.458Z,18.34
2017-08-14T00:26:15.850Z,18.31
2017-08-14T00:27:16.157Z,18.33
2017-08-14T00:28:16.158Z,18.29
2017-08-14T00:29:19.432Z,18.23
2017-08-14T00:30:16.028Z,18.33
2017-08-14T00:31:15.873Z,18.31
2017-08-14T00:32:16.165Z,18.34
2017-08-14T00:33:16.166Z,18.31
2017-08-14T00:34:16.172Z,18.33
2017-08-14T00:35:16.457Z,18.26
2017-08-14T00:36:16.172Z,18.29
2017-08-14T00:37:16.185Z,18.34
2017-08-14T00:38:16.177Z,18.37
2017-08-14T00:39:16.175Z,18.29
2017-08-14T00:40:16.352Z,18.34
2017-08-14T00:41:16.182Z,18.29
2017-08-14T00:42:16.183Z,18.33
2017-08-14T00:43:16.186Z,18.34
2017-08-14T00:44:15.893Z,18.31
2017-08-14T00:45:16.957Z,18.28
2017-08-14T00:46:15.892Z,18.34
2017-08-14T00:47:15.902Z,18.33
2017-08-14T00:48:16.196Z,18.34
2017-08-14T00:49:16.199Z,18.29
2017-08-14T00:50:16.162Z,18.33
2017-08-14T00:51:16.205Z,18.34
2017-08-14T00:52:15.914Z,18.34
2017-08-14T00:53:16.206Z,18.31
2017-08-14T00:54:16.210Z,18.44
2017-08-14T00:55:16.394Z,18.41
2017-08-14T00:56:16.223Z,18.37
2017-08-14T00:57:16.209Z,18.52
2017-08-14T00:58:15.911Z,18.44
2017-08-14T00:59:17.280Z,18.44
2017-08-14T01:00:16.804Z,18.41
2017-08-14T01:01:15.921Z,18.44
2017-08-14T01:02:16.224Z,18.58
2017-08-14T01:03:16.226Z,18.62
2017-08-14T01:04:15.937Z,18.53
2017-08-14T01:05:16.766Z,18.56
2017-08-14T01:06:16.283Z,18.52
2017-08-14T01:07:15.961Z,18.66
2017-08-14T01:08:16.265Z,18.65
2017-08-14T01:09:16.267Z,18.66
2017-08-14T01:10:16.423Z,18.62
2017-08-14T01:11:15.965Z,18.65
2017-08-14T01:12:16.280Z,18.58
2017-08-14T01:13:15.941Z,18.66
2017-08-14T01:14:16.266Z,18.62
2017-08-14T01:15:16.735Z,18.55
2017-08-14T01:16:15.965Z,18.53
2017-08-14T01:17:16.279Z,18.65
2017-08-14T01:18:16.276Z,18.55
2017-08-14T01:19:16.279Z,18.52
2017-08-14T01:20:17.026Z,18.47
2017-08-14T01:21:16.271Z,18.58
2017-08-14T01:22:16.289Z,18.59
2017-08-14T01:23:16.285Z,18.41
2017-08-14T01:24:16.289Z,18.5
2017-08-14T01:25:16.706Z,18.44
2017-08-14T01:26:16.289Z,18.5
2017-08-14T01:27:16.292Z,18.41
2017-08-14T01:28:16.285Z,18.53
2017-08-14T01:29:16.285Z,18.41
2017-08-14T01:30:16.694Z,18.49
2017-08-14T01:31:16.295Z,18.49
2017-08-14T01:32:16.293Z,18.44
2017-08-14T01:33:16.306Z,18.47
2017-08-14T01:34:16.287Z,18.47
2017-08-14T01:35:16.580Z,18.38
2017-08-14T01:36:16.320Z,18.38
2017-08-14T01:37:16.306Z,18.34
2017-08-14T01:38:16.323Z,18.44
2017-08-14T01:39:16.326Z,18.43
2017-08-14T01:40:16.623Z,18.41
2017-08-14T01:41:16.325Z,18.37
2017-08-14T01:42:16.356Z,18.44
2017-08-14T01:43:16.336Z,18.34
2017-08-14T01:44:16.338Z,18.45
2017-08-14T01:45:16.032Z,18.44
2017-08-14T01:46:16.345Z,18.35
2017-08-14T01:47:16.335Z,18.38
2017-08-14T01:48:16.338Z,18.47
2017-08-14T01:49:16.031Z,18.38
2017-08-14T01:50:16.657Z,18.34
2017-08-14T01:51:16.350Z,18.43
2017-08-14T01:52:16.348Z,18.45
2017-08-14T01:53:16.350Z,18.43
2017-08-14T01:54:16.342Z,18.37
2017-08-14T01:55:16.322Z,18.44
2017-08-14T01:56:16.390Z,18.37
2017-08-14T01:57:16.350Z,18.37
2017-08-14T01:58:16.348Z,18.44
2017-08-14T01:59:16.395Z,18.29
2017-08-14T02:00:18.495Z,18.37
2017-08-14T02:01:16.363Z,18.34
2017-08-14T02:02:16.363Z,18.37
2017-08-14T02:03:16.352Z,18.35
2017-08-14T02:04:16.370Z,18.47
2017-08-14T02:05:17.138Z,18.37
2017-08-14T02:06:16.366Z,18.44
2017-08-14T02:07:16.361Z,18.37
2017-08-14T02:08:16.358Z,18.34
2017-08-14T02:09:16.071Z,18.33
2017-08-14T02:10:16.556Z,18.35
2017-08-14T02:11:16.369Z,18.34
2017-08-14T02:12:16.378Z,18.43
2017-08-14T02:13:16.372Z,18.35
2017-08-14T02:14:16.373Z,18.4
2017-08-14T02:15:16.463Z,18.35
2017-08-14T02:16:16.392Z,18.37
2017-08-14T02:17:16.064Z,18.34
2017-08-14T02:18:16.388Z,18.37
2017-08-14T02:19:16.388Z,18.35
2017-08-14T02:20:16.269Z,18.29
2017-08-14T02:21:16.383Z,18.31
2017-08-14T02:22:16.393Z,18.33
2017-08-14T02:23:16.392Z,18.28
2017-08-14T02:24:16.415Z,18.33
2017-08-14T02:25:16.712Z,18.34
2017-08-14T02:26:16.432Z,18.31
2017-08-14T02:27:16.089Z,18.28
2017-08-14T02:28:16.096Z,18.31
2017-08-14T02:29:16.399Z,18.37
2017-08-14T02:30:20.022Z,18.35
2017-08-14T02:31:15.810Z,18.33
2017-08-14T02:32:16.417Z,18.34
2017-08-14T02:33:16.441Z,18.23
2017-08-14T02:34:16.412Z,18.29
2017-08-14T02:35:16.420Z,18.33
2017-08-14T02:36:16.431Z,18.31
2017-08-14T02:37:16.443Z,18.34
2017-08-14T02:38:16.439Z,18.29
2017-08-14T02:39:16.449Z,18.23
2017-08-14T02:40:16.339Z,18.22
2017-08-14T02:41:16.120Z,18.23
2017-08-14T02:42:16.430Z,18.22
2017-08-14T02:43:16.434Z,18.16
2017-08-14T02:44:16.441Z,18.13
2017-08-14T02:45:17.197Z,18.1
2017-08-14T02:46:16.441Z,18.16
2017-08-14T02:47:16.456Z,18.08
2017-08-14T02:48:16.449Z,18.15
2017-08-14T02:49:16.441Z,18.13
2017-08-14T02:50:16.296Z,18.13
2017-08-14T02:51:16.457Z,18.04
2017-08-14T02:52:16.443Z,18.13
2017-08-14T02:53:16.450Z,18.07
2017-08-14T02:54:16.462Z,18.08
2017-08-14T02:55:16.724Z,18.04
2017-08-14T02:56:16.458Z,18.13
2017-08-14T02:57:16.458Z,18.08
2017-08-14T02:58:16.469Z,18.05
2017-08-14T02:59:16.454Z,18.13
2017-08-14T03:00:17.210Z,18.07
2017-08-14T03:01:16.470Z,18.07
2017-08-14T03:02:16.458Z,18.01
2017-08-14T03:03:16.462Z,18.03
2017-08-14T03:04:16.476Z,18.04
2017-08-14T03:05:16.652Z,18.07
2017-08-14T03:06:16.476Z,18.05
2017-08-14T03:07:16.481Z,18.03
2017-08-14T03:08:16.465Z,18.03
2017-08-14T03:09:16.473Z,18
2017-08-14T03:10:16.682Z,18
2017-08-14T03:11:16.476Z,18.07
2017-08-14T03:12:16.480Z,18.08
2017-08-14T03:13:16.170Z,18.07
2017-08-14T03:14:16.500Z,18.13
2017-08-14T03:15:16.782Z,18.15
2017-08-14T03:16:18.132Z,18.13
2017-08-14T03:17:16.503Z,18.13
2017-08-14T03:18:16.511Z,18.11
2017-08-14T03:19:16.499Z,18.16
2017-08-14T03:20:16.795Z,18.16
2017-08-14T03:21:16.531Z,18.11
2017-08-14T03:22:16.499Z,18.1
2017-08-14T03:23:16.542Z,18.2
2017-08-14T03:24:16.523Z,18.16
2017-08-14T03:25:17.334Z,18.15
2017-08-14T03:26:16.514Z,18.22
2017-08-14T03:27:16.548Z,18.22
2017-08-14T03:28:16.529Z,18.2
2017-08-14T03:29:16.531Z,18.25
2017-08-14T03:30:16.838Z,18.28
2017-08-14T03:31:19.121Z,18.23
2017-08-14T03:32:16.524Z,18.25
2017-08-14T03:33:16.200Z,18.2
2017-08-14T03:34:16.530Z,18.25
2017-08-14T03:35:16.433Z,18.23
2017-08-14T03:36:16.537Z,18.25
2017-08-14T03:37:15.927Z,18.18
2017-08-14T03:38:16.539Z,18.13
2017-08-14T03:39:16.553Z,18.11
2017-08-14T03:40:16.977Z,18.13
2017-08-14T03:41:16.540Z,18.11
2017-08-14T03:42:16.563Z,18.18
2017-08-14T03:43:16.559Z,18.13
2017-08-14T03:44:16.539Z,18.08
2017-08-14T03:45:16.858Z,18.18
2017-08-14T03:46:16.549Z,18.16
2017-08-14T03:47:16.234Z,18.16
2017-08-14T03:48:16.558Z,18.15
2017-08-14T03:49:16.567Z,18.13
2017-08-14T03:50:17.110Z,18.16
2017-08-14T03:51:16.240Z,18.08
2017-08-14T03:52:16.561Z,18.15
2017-08-14T03:53:16.557Z,18.11
2017-08-14T03:54:16.559Z,18.03
2017-08-14T03:55:17.066Z,17.97
2017-08-14T03:56:16.577Z,18.05
2017-08-14T03:57:16.575Z,17.9
2017-08-14T03:58:16.620Z,17.92
2017-08-14T03:59:16.594Z,17.95
2017-08-14T04:00:17.251Z,17.94
2017-08-14T04:01:18.913Z,17.9
2017-08-14T04:02:16.263Z,17.78
2017-08-14T04:03:16.596Z,17.79
2017-08-14T04:04:16.581Z,17.86
2017-08-14T04:05:16.479Z,17.78
2017-08-14T04:06:16.267Z,17.76
2017-08-14T04:07:16.579Z,17.76
2017-08-14T04:08:16.605Z,17.72
2017-08-14T04:09:16.273Z,17.72
2017-08-14T04:10:16.141Z,17.63
2017-08-14T04:11:16.593Z,17.64
2017-08-14T04:12:16.591Z,17.67
2017-08-14T04:13:16.603Z,17.65
2017-08-14T04:14:16.298Z,17.64
2017-08-14T04:15:16.901Z,17.68
2017-08-14T04:16:16.599Z,17.59
2017-08-14T04:17:16.595Z,17.56
2017-08-14T04:18:16.591Z,17.59
2017-08-14T04:19:16.611Z,17.46
2017-08-14T04:20:17.014Z,17.52
2017-08-14T04:21:16.607Z,17.49
2017-08-14T04:22:16.297Z,17.52
2017-08-14T04:23:16.319Z,17.46
2017-08-14T04:24:16.603Z,17.42
2017-08-14T04:25:16.930Z,17.45
2017-08-14T04:26:16.312Z,17.49
2017-08-14T04:27:16.614Z,17.42
2017-08-14T04:28:16.601Z,17.46
2017-08-14T04:29:16.622Z,17.39
2017-08-14T04:30:16.939Z,17.39
2017-08-14T04:31:16.620Z,17.44
2017-08-14T04:32:16.320Z,17.46
2017-08-14T04:33:16.625Z,17.36
2017-08-14T04:34:16.641Z,17.36
2017-08-14T04:35:17.068Z,17.41
2017-08-14T04:36:16.323Z,17.48
2017-08-14T04:37:16.638Z,17.39
2017-08-14T04:38:16.623Z,17.46
2017-08-14T04:39:16.626Z,17.49
2017-08-14T04:40:16.603Z,17.48
2017-08-14T04:41:16.321Z,17.48
2017-08-14T04:42:16.645Z,17.56
2017-08-14T04:43:16.645Z,17.65
2017-08-14T04:44:16.347Z,17.68
2017-08-14T04:45:16.912Z,17.76
2017-08-14T04:46:16.329Z,17.89
2017-08-14T04:47:16.829Z,18.01
2017-08-14T04:48:16.652Z,18.18
2017-08-14T04:49:16.343Z,18.29
2017-08-14T04:50:17.386Z,18.53
2017-08-14T04:51:16.648Z,18.55
2017-08-14T04:52:16.654Z,18.81
2017-08-14T04:53:16.652Z,19.04
2017-08-14T04:54:16.651Z,19.26
2017-08-14T04:55:16.759Z,19.47
2017-08-14T04:56:16.668Z,19.69
2017-08-14T04:57:16.659Z,19.94
2017-08-14T04:58:16.662Z,20.18
2017-08-14T04:59:16.664Z,20.41
2017-08-14T05:00:16.603Z,20.7
2017-08-14T05:01:16.377Z,21
2017-08-14T05:02:16.885Z,21.33
2017-08-14T05:03:16.685Z,21.55
2017-08-14T05:04:16.696Z,21.76
2017-08-14T05:05:17.453Z,21.95
2017-08-14T05:06:16.688Z,22.22
2017-08-14T05:07:16.685Z,22.39
2017-08-14T05:08:16.700Z,22.54
2017-08-14T05:09:16.698Z,22.73
2017-08-14T05:10:16.995Z,22.88
2017-08-14T05:11:16.705Z,22.96
2017-08-14T05:12:16.704Z,23.18
2017-08-14T05:13:16.717Z,23.43
2017-08-14T05:14:16.719Z,23.51
2017-08-14T05:15:16.998Z,23.62
2017-08-14T05:16:16.735Z,23.71
2017-08-14T05:17:16.729Z,23.8
2017-08-14T05:18:16.740Z,23.77
2017-08-14T05:19:16.456Z,23.81
2017-08-14T05:20:16.378Z,23.95
2017-08-14T05:21:16.460Z,24.06
2017-08-14T05:22:16.765Z,24.23
2017-08-14T05:23:16.464Z,24.3
2017-08-14T05:24:16.474Z,24.55
2017-08-14T05:25:17.041Z,24.66
2017-08-14T05:26:16.499Z,24.73
2017-08-14T05:27:16.787Z,24.63
2017-08-14T05:28:16.788Z,24.33
2017-08-14T05:29:16.804Z,24.01
2017-08-14T05:30:17.078Z,23.65
2017-08-14T05:31:16.828Z,23.32
2017-08-14T05:32:19.714Z,23.12
2017-08-14T05:33:16.827Z,22.87
2017-08-14T05:34:16.549Z,22.68
2017-08-14T05:35:17.183Z,22.65
2017-08-14T05:36:16.837Z,22.44
2017-08-14T05:37:16.844Z,22.47
2017-08-14T05:38:16.847Z,22.57
2017-08-14T05:39:16.853Z,22.62
2017-08-14T05:40:17.183Z,22.51
2017-08-14T05:41:16.587Z,22.47
2017-08-14T05:42:16.867Z,22.43
2017-08-14T05:43:16.887Z,22.28
2017-08-14T05:44:16.893Z,22.17
2017-08-14T05:45:16.827Z,22
2017-08-14T05:46:16.288Z,21.89
2017-08-14T05:47:16.630Z,21.7
2017-08-14T05:48:16.894Z,21.73
2017-08-14T05:49:16.901Z,21.85
2017-08-14T05:50:17.193Z,21.77
2017-08-14T05:51:16.637Z,21.72
2017-08-14T05:52:16.928Z,21.6
2017-08-14T05:53:16.929Z,21.48
2017-08-14T05:54:16.640Z,21.42
2017-08-14T05:55:16.940Z,21.11
2017-08-14T05:56:16.938Z,20.88
2017-08-14T05:57:16.960Z,20.75
2017-08-14T05:58:16.979Z,20.72
2017-08-14T05:59:16.943Z,20.88
2017-08-14T06:00:17.262Z,21.09
2017-08-14T06:01:16.960Z,21.07
2017-08-14T06:02:16.959Z,21.03
2017-08-14T06:03:16.970Z,21.17
2017-08-14T06:04:16.967Z,21.32
2017-08-14T06:05:16.923Z,21.54
2017-08-14T06:06:16.984Z,21.99
2017-08-14T06:07:16.991Z,22.47
2017-08-14T06:08:16.700Z,22.9
2017-08-14T06:09:16.991Z,23.34
2017-08-14T06:10:16.991Z,23.54
2017-08-14T06:11:17.008Z,23.56
2017-08-14T06:12:16.443Z,23.43
2017-08-14T06:13:17.012Z,23.18
2017-08-14T06:14:16.727Z,22.85
2017-08-14T06:15:16.990Z,22.62
2017-08-14T06:16:16.728Z,22.33
2017-08-14T06:17:17.026Z,22.22
2017-08-14T06:18:17.028Z,22.1
2017-08-14T06:19:17.061Z,22.04
2017-08-14T06:20:17.323Z,22.11
2017-08-14T06:21:17.071Z,22.33
2017-08-14T06:22:17.046Z,22.6
2017-08-14T06:23:16.748Z,22.76
2017-08-14T06:24:17.061Z,22.94
2017-08-14T06:25:17.718Z,23.2
2017-08-14T06:26:17.069Z,23.41
2017-08-14T06:27:17.083Z,23.54
2017-08-14T06:28:17.073Z,23.65
2017-08-14T06:29:17.085Z,23.74
2017-08-14T06:30:17.353Z,23.83
2017-08-14T06:31:17.090Z,24.02
2017-08-14T06:32:16.803Z,24.28
2017-08-14T06:33:17.357Z,24.57
2017-08-14T06:34:17.132Z,24.84
2017-08-14T06:35:17.100Z,24.66
2017-08-14T06:36:16.813Z,24.68
2017-08-14T06:37:17.143Z,24.6
2017-08-14T06:38:17.136Z,24.55
2017-08-14T06:39:16.837Z,24.66
2017-08-14T06:40:17.403Z,24.88
2017-08-14T06:41:17.154Z,25.26
2017-08-14T06:42:17.154Z,25.62
2017-08-14T06:43:17.161Z,26.02
2017-08-14T06:44:17.170Z,26.47
2017-08-14T06:45:17.468Z,26.88
2017-08-14T06:46:17.178Z,27.2
2017-08-14T06:47:17.194Z,27.59
2017-08-14T06:48:20.603Z,27.93
2017-08-14T06:49:17.197Z,28.12
2017-08-14T06:50:17.069Z,27.87
2017-08-14T06:51:17.215Z,27.37
2017-08-14T06:52:17.214Z,26.92
2017-08-14T06:53:17.226Z,26.74
2017-08-14T06:54:17.241Z,26.75
2017-08-14T06:55:17.511Z,26.95
2017-08-14T06:56:16.946Z,27.36
2017-08-14T06:57:17.273Z,27.87
2017-08-14T06:58:17.263Z,27.96
2017-08-14T06:59:17.266Z,27.49
2017-08-14T07:00:17.518Z,27.08
2017-08-14T07:01:17.280Z,26.99
2017-08-14T07:02:16.987Z,26.99
2017-08-14T07:03:17.546Z,27
2017-08-14T07:04:17.013Z,26.81
2017-08-14T07:05:17.369Z,26.36
2017-08-14T07:06:17.321Z,25.85
2017-08-14T07:07:17.323Z,25.41
2017-08-14T07:08:17.030Z,24.95
2017-08-14T07:09:17.336Z,24.85
2017-08-14T07:10:17.071Z,24.81
2017-08-14T07:11:17.353Z,24.84
2017-08-14T07:12:17.354Z,24.95
2017-08-14T07:13:17.066Z,25.16
2017-08-14T07:14:17.380Z,25.4
2017-08-14T07:15:17.596Z,25.58
2017-08-14T07:16:17.388Z,25.62
2017-08-14T07:17:17.391Z,25.72
2017-08-14T07:18:17.097Z,26.05
2017-08-14T07:19:17.106Z,26.44
2017-08-14T07:20:17.418Z,26.51
2017-08-14T07:21:17.417Z,26.7
2017-08-14T07:22:17.423Z,26.7
2017-08-14T07:23:17.439Z,26.9
2017-08-14T07:24:17.441Z,27.03
2017-08-14T07:25:17.717Z,27.26
2017-08-14T07:26:17.448Z,27.29
2017-08-14T07:27:17.153Z,27.4
2017-08-14T07:28:17.463Z,27.4
2017-08-14T07:29:17.484Z,27.39
2017-08-14T07:30:17.246Z,27.27
2017-08-14T07:31:17.489Z,26.9
2017-08-14T07:32:17.499Z,26.45
2017-08-14T07:33:17.205Z,26.16
2017-08-14T07:34:17.704Z,26.06
2017-08-14T07:35:17.518Z,25.84
2017-08-14T07:36:17.523Z,25.7
2017-08-14T07:37:17.548Z,25.5
2017-08-14T07:38:17.529Z,25.5
2017-08-14T07:39:17.547Z,25.41
2017-08-14T07:40:17.645Z,25.68
2017-08-14T07:41:17.557Z,25.88
2017-08-14T07:42:17.265Z,26.13
2017-08-14T07:43:17.578Z,26.22
2017-08-14T07:44:17.579Z,26.48
2017-08-14T07:45:17.583Z,26.43
2017-08-14T07:46:17.586Z,26.58
2017-08-14T07:47:17.616Z,26.43
2017-08-14T07:48:17.605Z,26.23
2017-08-14T07:49:17.610Z,26.05
2017-08-14T07:50:17.619Z,26
2017-08-14T07:51:17.630Z,25.98
2017-08-14T07:52:17.319Z,25.96
2017-08-14T07:53:17.644Z,26.16
2017-08-14T07:54:17.338Z,26.33
2017-08-14T07:55:17.651Z,26.65
2017-08-14T07:56:17.649Z,26.95
2017-08-14T07:57:17.356Z,27.22
2017-08-14T07:58:17.355Z,27.39
2017-08-14T07:59:17.674Z,27.47
2017-08-14T08:00:17.759Z,27.67
2017-08-14T08:01:17.389Z,28.04
2017-08-14T08:02:17.385Z,28.08
2017-08-14T08:03:17.393Z,28.14
2017-08-14T08:04:22.710Z,28.35
2017-08-14T08:05:17.711Z,28.35
2017-08-14T08:06:17.721Z,28.48
2017-08-14T08:07:17.723Z,28.64
2017-08-14T08:08:17.736Z,28.47
2017-08-14T08:09:17.447Z,28.7
2017-08-14T08:10:17.741Z,29.1
2017-08-14T08:11:17.754Z,29.44
2017-08-14T08:12:17.767Z,29.36
2017-08-14T08:13:17.777Z,29.26
2017-08-14T08:14:17.474Z,29.38
2017-08-14T08:15:17.522Z,29.53
2017-08-14T08:16:17.792Z,29.5
2017-08-14T08:17:17.839Z,29.72
2017-08-14T08:18:17.516Z,30.12
2017-08-14T08:19:17.819Z,30.63
2017-08-14T08:20:17.826Z,31.02
2017-08-14T08:21:17.834Z,31.21
2017-08-14T08:22:17.846Z,31.44
2017-08-14T08:23:17.560Z,31.73
2017-08-14T08:24:17.869Z,31.85
2017-08-14T08:25:17.867Z,31.93
2017-08-14T08:26:17.580Z,32
2017-08-14T08:27:17.891Z,31.93
2017-08-14T08:28:17.899Z,31.89
2017-08-14T08:29:17.910Z,32.01
2017-08-14T08:30:17.614Z,31.65
2017-08-14T08:31:17.929Z,31.54
2017-08-14T08:32:17.929Z,31.12
2017-08-14T08:33:17.651Z,30.99
2017-08-14T08:34:18.152Z,30.83
2017-08-14T08:35:17.658Z,30.47
2017-08-14T08:36:17.663Z,30.03
2017-08-14T08:37:17.978Z,29.91
2017-08-14T08:38:17.990Z,29.9
2017-08-14T08:39:17.689Z,30
2017-08-14T08:40:18.004Z,30.18
2017-08-14T08:41:17.708Z,30.44
2017-08-14T08:42:17.721Z,30.72
2017-08-14T08:43:18.029Z,31.14
2017-08-14T08:44:17.742Z,31.44
2017-08-14T08:45:18.059Z,31.43
2017-08-14T08:46:18.053Z,31.47
2017-08-14T08:47:18.067Z,31.07
2017-08-14T08:48:17.773Z,30.62
2017-08-14T08:49:18.086Z,30.27
2017-08-14T08:50:18.099Z,29.84
2017-08-14T08:51:17.804Z,29.5
2017-08-14T08:52:18.124Z,29.12
2017-08-14T08:53:17.819Z,28.75
2017-08-14T08:54:17.820Z,28.42
2017-08-14T08:55:17.826Z,28.11
2017-08-14T08:56:18.137Z,27.89
2017-08-14T08:57:18.161Z,27.87
2017-08-14T08:58:18.154Z,27.87
2017-08-14T08:59:18.164Z,27.75
2017-08-14T09:00:17.883Z,27.71
2017-08-14T09:01:18.192Z,27.48
2017-08-14T09:02:18.189Z,27.45
2017-08-14T09:03:17.898Z,27.48
2017-08-14T09:04:19.302Z,27.64
2017-08-14T09:05:18.246Z,27.73
2017-08-14T09:06:18.213Z,27.82
2017-08-14T09:07:17.920Z,27.8
2017-08-14T09:08:17.930Z,27.68
2017-08-14T09:09:17.949Z,27.63
2017-08-14T09:10:17.950Z,27.65
2017-08-14T09:11:18.256Z,27.44
2017-08-14T09:12:18.256Z,27.33
2017-08-14T09:13:17.957Z,27.22
2017-08-14T09:14:17.965Z,27.18
2017-08-14T09:15:18.292Z,27.12
2017-08-14T09:16:17.685Z,26.93
2017-08-14T09:17:18.293Z,26.9
2017-08-14T09:18:18.003Z,26.71
2017-08-14T09:19:18.301Z,26.58
2017-08-14T09:20:18.306Z,26.48
2017-08-14T09:21:18.010Z,26.52
2017-08-14T09:22:18.327Z,26.56
2017-08-14T09:23:18.324Z,26.71
2017-08-14T09:24:18.330Z,26.83
2017-08-14T09:25:18.035Z,26.97
2017-08-14T09:26:18.351Z,27.07
2017-08-14T09:27:18.353Z,27.07
2017-08-14T09:28:18.052Z,27.05
2017-08-14T09:29:18.368Z,27.11
2017-08-14T09:30:18.270Z,27.08
2017-08-14T09:31:18.376Z,27.12
2017-08-14T09:32:18.382Z,27.14
2017-08-14T09:33:18.389Z,27.33
2017-08-14T09:34:18.094Z,27.47
2017-08-14T09:35:18.791Z,27.63
2017-08-14T09:36:18.116Z,27.74
2017-08-14T09:37:18.111Z,27.63
2017-08-14T09:38:18.425Z,27.6
2017-08-14T09:39:18.437Z,27.65
2017-08-14T09:40:18.359Z,27.78
2017-08-14T09:41:18.440Z,27.83
2017-08-14T09:42:18.445Z,27.75
2017-08-14T09:43:18.147Z,27.74
2017-08-14T09:44:18.462Z,27.89
2017-08-14T09:45:18.401Z,27.9
2017-08-14T09:46:18.468Z,27.9
2017-08-14T09:47:18.497Z,27.73
2017-08-14T09:48:18.482Z,27.65
2017-08-14T09:49:18.504Z,27.6
2017-08-14T09:50:18.884Z,27.59
2017-08-14T09:51:18.507Z,27.67
2017-08-14T09:52:18.515Z,27.85
2017-08-14T09:53:18.522Z,27.92
2017-08-14T09:54:18.216Z,28.1
2017-08-14T09:55:18.951Z,28.07
2017-08-14T09:56:17.932Z,28.22
2017-08-14T09:57:18.541Z,28.22
2017-08-14T09:58:18.241Z,28.39
2017-08-14T09:59:18.566Z,28.62
2017-08-14T10:00:18.429Z,28.62
2017-08-14T10:01:18.558Z,28.75
2017-08-14T10:02:18.564Z,28.89
2017-08-14T10:03:17.974Z,29.05
2017-08-14T10:04:18.314Z,29.04
2017-08-14T10:05:20.008Z,28.84
2017-08-14T10:06:18.618Z,28.84
2017-08-14T10:07:18.601Z,28.74
2017-08-14T10:08:18.309Z,28.72
2017-08-14T10:09:18.619Z,28.51
2017-08-14T10:10:18.503Z,28.42
2017-08-14T10:11:18.358Z,28.37
2017-08-14T10:12:18.629Z,28.2
2017-08-14T10:13:18.334Z,28.26
2017-08-14T10:14:18.641Z,28.1
2017-08-14T10:15:19.416Z,28.01
2017-08-14T10:16:18.351Z,28.01
2017-08-14T10:17:18.663Z,27.9
2017-08-14T10:18:18.670Z,27.87
2017-08-14T10:19:18.673Z,27.87
2017-08-14T10:20:18.815Z,28.02
2017-08-14T10:21:18.690Z,28.02
2017-08-14T10:22:18.692Z,28.07
2017-08-14T10:23:18.393Z,27.96
2017-08-14T10:24:18.413Z,27.9
2017-08-14T10:25:18.820Z,27.86
2017-08-14T10:26:18.721Z,27.9
2017-08-14T10:27:18.452Z,27.89
2017-08-14T10:28:18.744Z,28.08
2017-08-14T10:29:18.741Z,28.14
2017-08-14T10:30:18.964Z,28.37
2017-08-14T10:31:18.457Z,28.33
2017-08-14T10:32:18.456Z,28.42
2017-08-14T10:33:18.456Z,28.51
2017-08-14T10:34:18.457Z,28.49
2017-08-14T10:35:18.947Z,28.44
2017-08-14T10:36:18.778Z,28.45
2017-08-14T10:37:18.483Z,28.47
2017-08-14T10:38:18.783Z,28.45
2017-08-14T10:39:18.488Z,28.26
2017-08-14T10:40:19.135Z,28.27
2017-08-14T10:41:18.508Z,28.38
2017-08-14T10:42:18.506Z,28.41
2017-08-14T10:43:18.814Z,28.41
2017-08-14T10:44:18.819Z,28.42
2017-08-14T10:45:19.394Z,28.37
2017-08-14T10:46:18.833Z,28.42
2017-08-14T10:47:18.540Z,28.25
2017-08-14T10:48:18.542Z,28.27
2017-08-14T10:49:18.865Z,28.32
2017-08-14T10:50:19.279Z,28.29
2017-08-14T10:51:18.869Z,28.23
2017-08-14T10:52:18.878Z,28.26
2017-08-14T10:53:18.580Z,28.32
2017-08-14T10:54:18.930Z,28.32
2017-08-14T10:55:19.592Z,28.32
2017-08-14T10:56:18.897Z,28.32
2017-08-14T10:57:18.904Z,28.45
2017-08-14T10:58:18.610Z,28.45
2017-08-14T10:59:18.307Z,28.42
2017-08-14T11:00:19.344Z,28.42
2017-08-14T11:01:18.958Z,28.42
2017-08-14T11:02:18.939Z,28.39
2017-08-14T11:03:18.953Z,28.42
2017-08-14T11:04:18.980Z,28.45
2017-08-14T11:05:19.486Z,28.49
2017-08-14T11:06:19.015Z,28.47
2017-08-14T11:07:19.021Z,28.41
2017-08-14T11:08:18.972Z,28.42
2017-08-14T11:09:18.982Z,28.42
2017-08-14T11:10:19.253Z,28.48
2017-08-14T11:11:18.685Z,28.51
2017-08-14T11:12:18.688Z,28.44
2017-08-14T11:13:18.710Z,28.44
2017-08-14T11:14:19.028Z,28.41
2017-08-14T11:15:19.129Z,28.3
2017-08-14T11:16:18.740Z,28.3
2017-08-14T11:17:18.757Z,28.19
2017-08-14T11:18:19.059Z,28.17
2017-08-14T11:19:18.741Z,28.23
2017-08-14T11:20:19.063Z,28.35
2017-08-14T11:21:18.770Z,28.44
2017-08-14T11:22:19.081Z,28.59
2017-08-14T11:23:19.073Z,28.57
2017-08-14T11:24:19.080Z,28.64
2017-08-14T11:25:19.076Z,28.7
2017-08-14T11:26:19.083Z,28.82
2017-08-14T11:27:18.802Z,28.88
2017-08-14T11:28:19.122Z,28.98
2017-08-14T11:29:19.134Z,29.02
2017-08-14T11:30:19.162Z,28.94
2017-08-14T11:31:19.122Z,28.88
2017-08-14T11:32:19.140Z,28.89
2017-08-14T11:33:19.147Z,28.93
2017-08-14T11:34:19.146Z,28.98
2017-08-14T11:35:19.725Z,28.94
2017-08-14T11:36:18.883Z,28.84
2017-08-14T11:37:18.841Z,28.85
2017-08-14T11:38:19.167Z,28.85
2017-08-14T11:39:18.890Z,28.81
2017-08-14T11:40:19.928Z,28.85
2017-08-14T11:41:19.186Z,28.82
2017-08-14T11:42:19.200Z,28.88
2017-08-14T11:43:19.185Z,28.7
2017-08-14T11:44:18.637Z,28.7
2017-08-14T11:45:19.273Z,28.62
2017-08-14T11:46:19.205Z,28.63
2017-08-14T11:47:18.928Z,28.45
2017-08-14T11:48:18.913Z,28.33
2017-08-14T11:49:19.283Z,28.25
2017-08-14T11:50:19.622Z,28.25
2017-08-14T11:51:18.931Z,28.25
2017-08-14T11:52:19.239Z,28.14
2017-08-14T11:53:19.258Z,28.19
2017-08-14T11:54:19.269Z,28.26
2017-08-14T11:55:19.781Z,28.38
2017-08-14T11:56:18.680Z,28.57
2017-08-14T11:57:19.266Z,28.59
2017-08-14T11:58:19.284Z,28.69
2017-08-14T11:59:19.283Z,28.67
2017-08-14T12:00:19.302Z,28.66
2017-08-14T12:01:18.988Z,28.6
2017-08-14T12:02:18.992Z,28.6
2017-08-14T12:03:19.305Z,28.57
2017-08-14T12:04:19.306Z,28.54
2017-08-14T12:05:19.761Z,28.7
2017-08-14T12:06:19.312Z,28.86
2017-08-14T12:07:18.748Z,28.96
2017-08-14T12:08:19.335Z,29.07
2017-08-14T12:09:19.032Z,29.02
2017-08-14T12:10:19.294Z,28.85
2017-08-14T12:11:19.355Z,28.67
2017-08-14T12:12:19.357Z,28.6
2017-08-14T12:13:19.079Z,28.57
2017-08-14T12:14:19.370Z,28.57
2017-08-14T12:15:19.531Z,28.62
2017-08-14T12:16:19.373Z,28.75
2017-08-14T12:17:19.413Z,28.78
2017-08-14T12:18:19.385Z,28.82
2017-08-14T12:19:19.391Z,28.81
2017-08-14T12:20:19.856Z,28.91
2017-08-14T12:21:19.413Z,28.96
2017-08-14T12:22:19.414Z,29.02
2017-08-14T12:23:19.140Z,28.94
2017-08-14T12:24:19.424Z,28.98
2017-08-14T12:25:19.682Z,29.04
2017-08-14T12:26:19.435Z,29.02
2017-08-14T12:27:19.164Z,29.05
2017-08-14T12:28:19.165Z,29.07
2017-08-14T12:29:19.462Z,29.02
2017-08-14T12:30:19.773Z,29.08
2017-08-14T12:31:19.506Z,28.93
2017-08-14T12:32:19.482Z,29.01
2017-08-14T12:33:18.903Z,28.94
2017-08-14T12:34:19.499Z,28.93
2017-08-14T12:35:19.678Z,28.82
2017-08-14T12:36:19.576Z,28.89
2017-08-14T12:37:19.503Z,28.78
2017-08-14T12:38:19.512Z,28.72
2017-08-14T12:39:19.521Z,28.74
2017-08-14T12:40:19.577Z,28.78
2017-08-14T12:41:19.549Z,28.85
2017-08-14T12:42:19.229Z,28.85
2017-08-14T12:43:18.952Z,28.88
2017-08-14T12:44:19.263Z,28.67
2017-08-14T12:45:19.824Z,28.63
2017-08-14T12:46:19.560Z,28.59
2017-08-14T12:47:19.565Z,28.74
2017-08-14T12:48:19.569Z,28.75
2017-08-14T12:49:19.575Z,28.85
2017-08-14T12:50:19.772Z,28.94
2017-08-14T12:51:20.179Z,29.1
2017-08-14T12:52:18.994Z,29.13
2017-08-14T12:53:19.602Z,29.24
2017-08-14T12:54:19.627Z,29.31
2017-08-14T12:55:19.892Z,29.32